LIPL/QBS METAR and TAF weather

Enter ICAO airport designator
Station Type Date Time Source
LIPL METAR 2020/12/01 19:55 UTC NOAA

LIPL 011955Z 31003KT 4000 BR SCT040 SCT080 03/02 Q1013 RMK BKN VIS MIN 4000 WIND THR31 31005KT WIND THR13 30004KT GRN


Station Type Date Time Source
LIPL Decoded METAR 2020/12/01 19:55 UTC NOAA

Brescia / Ghedi, Italy (LIPL) 45-25N 010-17E 97M
Dec 01, 2020 - 02:55 PM EST / 2020.12.01 1955 UTC
Wind: from the NW (310 degrees) at 3 MPH (3 KT):0
Visibility: 2 mile(s):0
Sky conditions: partly cloudy
Weather: mist
Temperature: 37 F (3 C)
Dew Point: 35 F (2 C)
Relative Humidity: 93%
Pressure (altimeter): 29.91 in. Hg (1013 hPa)
ob: LIPL 011955Z 31003KT 4000 BR SCT040 SCT080 03/02 Q1013 RMK BKN VIS MIN 4000 WIND THR31 31005KT WIND THR13 30004KT GRN
cycle: 20

Station Type Date Time Source
LIPL TAF 2020/02/28 09:24 UTC NOAA

TAF TAF LIPL 280800Z 2809/2821 27007KT CAVOK

Example: see airport list